Time;durP1;ratioP1;P1;durP2;ratioP2;P2;SDS_P1;SDS_P2;PMS_P1;PMS_P2;Temp;Humidity;BMP_temperature;BMP_pressure;BME280_temperature;BME280_humidity;BME280_pressure;Samples;Min_cycle;Max_cycle;Signal;HPM_P1;HPM_P2
2022/11/11 00:01:47;;;;;;;;;;;10.20;69.10;;;5.37;100.00;96881.47;4973471;28;19912;-54
2022/11/11 00:04:13;;;;;;;;;;;10.20;69.10;;;5.38;100.00;96880.44;4974723;28;20265;-53
2022/11/11 00:06:38;;;;;;;;;;;10.20;69.20;;;5.38;100.00;96883.09;4984587;28;19935;-53
2022/11/11 00:09:04;;;;;;;;;;;10.20;69.10;;;5.36;100.00;96881.66;4976896;28;19974;-57
2022/11/11 00:11:30;;;;;;;;;;;10.20;69.10;;;5.36;100.00;96879.84;4993973;28;19909;-53
2022/11/11 00:13:59;;;;;;;;;;;10.20;69.00;;;5.28;100.00;96886.09;4982803;28;19910;-57
2022/11/11 00:25:04;;;;;;;;;;;10.20;68.80;;;5.26;100.00;96882.84;4975099;28;20272;-52
2022/11/11 00:25:17;;;;;;;;;;;10.10;68.70;;;5.19;100.00;96876.72;4981884;28;19920;-53
2022/11/11 00:27:46;;;;;;;;;;;10.00;68.70;;;5.13;100.00;96872.25;4978057;28;19917;-54
2022/11/11 00:30:24;;;;;;;;;;;9.90;68.70;;;5.13;100.00;96876.72;4973114;28;19922;-52
2022/11/11 00:32:52;;;;;;;;;;;9.90;68.90;;;5.09;100.00;96873.66;4957700;28;19944;-52
2022/11/11 00:41:03;;;;;;;;;;;9.80;69.10;;;5.14;100.00;96878.34;4994164;28;20311;-53
2022/11/11 00:43:35;;;;;;;;;;;9.80;69.20;;;5.11;100.00;96879.56;4983847;28;19920;-53
2022/11/11 00:51:33;;;;;;;;;;;9.90;69.30;;;5.17;100.00;96878.78;4987110;28;19921;-54
2022/11/11 00:54:02;;;;;;;;;;;9.90;69.30;;;5.20;100.00;96881.03;4972210;28;19910;-56
2022/11/11 00:56:28;;;;;;;;;;;9.90;69.30;;;5.23;100.00;96882.44;4988497;28;19941;-57
2022/11/11 00:58:54;;;;;;;;;;;9.90;69.30;;;5.26;100.00;96885.47;4994048;28;19909;-56
2022/11/11 01:01:20;;;;;;;;;;;10.00;69.40;;;5.28;100.00;96886.09;4975487;28;19925;-54
2022/11/11 01:03:45;;;;;;;;;;;10.00;69.50;;;5.32;100.00;96895.25;4993120;28;19911;-55
2022/11/11 01:06:14;;;;;;;;;;;10.10;69.60;;;5.38;100.00;96892.84;4992945;28;19920;-58
2022/11/11 01:08:41;;;;;;;;;;;10.10;70.30;;;5.40;100.00;96898.75;4993824;28;19943;-55
2022/11/11 01:11:33;;;;;;;;;;;10.20;69.50;;;5.45;100.00;96891.03;4974872;28;19937;-50
2022/11/11 01:13:59;;;;;;;;;;;10.20;69.50;;;5.47;100.00;96891.66;4972544;28;19917;-58
2022/11/11 01:16:26;;;;;;;;;;;10.20;69.50;;;5.54;100.00;96898.56;4958681;28;20287;-53
2022/11/11 01:18:54;;;;;;;;;;;10.30;69.60;;;5.60;100.00;96899.59;4974149;28;19913;-54
2022/11/11 01:21:23;;;;;;;;;;;10.30;69.60;;;5.64;100.00;96900.84;4988662;28;20402;-55
2022/11/11 01:23:53;;;;;;;;;;;10.30;69.60;;;5.69;100.00;96902.88;4977196;28;19913;-58
2022/11/11 01:26:27;;;;;;;;;;;10.40;69.60;;;5.71;100.00;96893.72;4975192;28;20361;-55
2022/11/11 01:28:55;;;;;;;;;;;10.40;69.60;;;5.75;100.00;96891.50;4988575;28;20266;-57
2022/11/11 01:31:24;;;;;;;;;;;10.40;69.60;;;5.79;100.00;96898.00;4985148;28;19913;-57
2022/11/11 01:34:02;;;;;;;;;;;10.50;69.60;;;5.82;100.00;96897.59;4960684;28;19914;-57
2022/11/11 01:36:27;;;;;;;;;;;10.50;69.60;;;5.86;100.00;96896.19;4958617;28;20416;-56
2022/11/11 01:38:58;;;;;;;;;;;10.50;69.60;;;5.88;100.00;96901.25;4953507;28;19910;-55
2022/11/11 01:41:31;;;;;;;;;;;10.60;69.60;;;5.90;100.00;96894.75;4952900;28;19914;-52
2022/11/11 01:45:01;;;;;;;;;;;10.70;69.60;;;5.95;100.00;96894.16;4954598;28;19918;-54
2022/11/11 01:49:17;;;;;;;;;;;10.60;69.50;;;5.98;100.00;96891.13;4959228;28;20288;-57
2022/11/11 01:50:12;;;;;;;;;;;10.70;69.70;;;6.00;100.00;96889.09;4973139;28;20284;-52
2022/11/11 01:52:44;;;;;;;;;;;10.70;69.50;;;6.03;100.00;96888.69;4955156;28;19910;-54
2022/11/11 01:55:21;;;;;;;;;;;10.80;69.50;;;6.07;100.00;96904.97;4939185;28;20020;-55
2022/11/11 01:57:58;;;;;;;;;;;10.80;69.50;;;6.12;100.00;96910.47;4943541;28;19997;-56
2022/11/11 02:00:23;;;;;;;;;;;10.90;69.50;;;6.13;100.00;96902.31;4985582;28;19916;-54
2022/11/11 02:02:59;;;;;;;;;;;10.90;69.50;;;6.16;100.00;96896.63;4953732;28;19913;-57
2022/11/11 02:05:42;;;;;;;;;;;11.00;69.50;;;6.19;100.00;96898.03;4953374;28;20380;-52
2022/11/11 02:08:12;;;;;;;;;;;11.00;69.50;;;6.24;100.00;96906.19;4960166;28;20285;-57
2022/11/11 02:10:44;;;;;;;;;;;11.00;69.50;;;6.28;100.00;96899.47;4952714;28;19913;-53
2022/11/11 02:16:07;;;;;;;;;;;11.00;69.60;;;6.36;100.00;96920.44;4985654;28;20366;-53
2022/11/11 02:18:33;;;;;;;;;;;11.00;69.50;;;6.40;100.00;96919.00;4987133;28;20391;-54
2022/11/11 02:20:59;;;;;;;;;;;11.10;69.60;;;6.44;100.00;96927.34;4961655;28;19997;-56
2022/11/11 02:23:38;;;;;;;;;;;11.10;69.60;;;6.45;100.00;96923.66;4953588;28;20005;-52
2022/11/11 02:26:08;;;;;;;;;;;11.10;69.70;;;6.49;100.00;96922.25;4939131;28;20036;-53
2022/11/11 02:28:40;;;;;;;;;;;11.20;69.80;;;6.51;100.00;96924.69;4956092;28;19921;-58
2022/11/11 02:31:05;;;;;;;;;;;11.20;69.80;;;6.51;100.00;96922.84;4986535;28;19916;-54
2022/11/11 02:33:31;;;;;;;;;;;11.20;69.80;;;6.59;100.00;96927.13;4971676;28;19910;-55
2022/11/11 02:36:01;;;;;;;;;;;11.20;69.80;;;6.61;100.00;96925.91;4970545;28;19917;-56
2022/11/11 02:38:30;;;;;;;;;;;11.20;69.80;;;6.65;100.00;96929.75;4971959;28;20452;-56
2022/11/11 02:43:43;;;;;;;;;;;11.30;69.90;;;6.70;100.00;96937.88;4972084;28;19916;-51
2022/11/11 02:46:08;;;;;;;;;;;11.30;69.90;;;6.74;100.00;96938.31;4971923;28;19914;-53
2022/11/11 02:48:34;;;;;;;;;;;11.30;70.00;;;6.77;100.00;96948.47;4971916;28;19918;-57
2022/11/11 02:51:00;;;;;;;;;;;11.40;70.00;;;6.79;100.00;96951.72;4971461;28;19910;-53
2022/11/11 02:53:26;;;;;;;;;;;11.40;70.00;;;6.82;100.00;96956.59;4986981;28;19909;-56
2022/11/11 02:55:57;;;;;;;;;;;11.40;69.90;;;6.82;100.00;96948.66;4972076;28;19921;-56
2022/11/11 02:58:26;;;;;;;;;;;11.40;69.90;;;6.85;100.00;96950.09;4971035;28;20331;-57
2022/11/11 03:00:52;;;;;;;;;;;11.50;69.90;;;6.86;100.00;96957.00;4965057;28;19945;-58
2022/11/11 03:03:17;;;;;;;;;;;11.50;69.90;;;6.87;100.00;96953.34;4968148;28;19949;-58
2022/11/11 03:05:46;;;;;;;;;;;11.50;69.90;;;6.86;100.00;96962.28;4953083;28;19914;-58
2022/11/11 03:08:15;;;;;;;;;;;11.60;70.00;;;6.86;100.00;96963.13;4972379;28;19913;-57
2022/11/11 03:10:50;;;;;;;;;;;11.60;69.90;;;6.89;100.00;96964.53;4987181;28;19913;-53
2022/11/11 03:13:16;;;;;;;;;;;11.70;70.00;;;6.89;100.00;96977.78;4957748;28;19913;-56
2022/11/11 03:15:44;;;;;;;;;;;11.70;69.90;;;6.92;100.00;96982.66;4952392;28;20372;-53
2022/11/11 03:18:13;;;;;;;;;;;11.70;69.80;;;6.97;100.00;96976.75;4957871;28;19944;-56
2022/11/11 03:23:32;;;;;;;;;;;11.80;69.80;;;6.99;100.00;96978.19;4953194;28;19964;-55
2022/11/11 03:25:58;;;;;;;;;;;11.80;69.80;;;7.00;100.00;96976.34;4972948;28;19917;-53
2022/11/11 03:28:24;;;;;;;;;;;11.80;69.80;;;6.98;100.00;96981.03;4988610;23;19898;-55
2022/11/11 03:30:50;;;;;;;;;;;11.80;70.50;;;6.99;100.00;96985.28;4992021;28;20319;-52
2022/11/11 03:33:18;;;;;;;;;;;11.80;69.70;;;7.01;100.00;96977.97;5006250;28;20004;-47
2022/11/11 03:35:46;;;;;;;;;;;11.80;69.70;;;7.04;100.00;96988.16;5008133;28;19909;-54
2022/11/11 03:38:15;;;;;;;;;;;11.80;69.80;;;7.03;100.00;96989.19;4993240;28;20435;-46
2022/11/11 03:40:46;;;;;;;;;;;11.80;69.80;;;7.05;100.00;96987.94;5026012;28;19916;-50
2022/11/11 03:43:15;;;;;;;;;;;11.80;69.80;;;7.08;100.00;96995.50;5009767;28;19909;-46
2022/11/11 03:45:55;;;;;;;;;;;11.80;69.80;;;7.09;100.00;96996.28;4989283;28;20409;-47
2022/11/11 03:48:22;;;;;;;;;;;11.90;69.90;;;7.06;100.00;97002.81;4989096;28;20342;-49
2022/11/11 03:50:54;;;;;;;;;;;11.90;69.90;;;7.09;100.00;97004.25;5009424;28;19909;-47
2022/11/11 03:53:21;;;;;;;;;;;11.90;69.90;;;7.10;100.00;97011.16;5010580;28;19916;-49
2022/11/11 03:55:53;;;;;;;;;;;11.80;69.80;;;7.09;100.00;97020.94;4979266;28;19959;-52
2022/11/11 03:58:27;;;;;;;;;;;11.80;69.90;;;7.07;100.00;97016.88;4990530;28;19916;-51
2022/11/11 04:00:54;;;;;;;;;;;11.80;69.90;;;7.03;100.00;97020.97;4990537;28;19909;-48
2022/11/11 04:11:47;;;;;;;;;;;11.90;70.00;;;7.12;100.00;97022.38;5007049;28;19920;-46
2022/11/11 04:17:07;;;;;;;;;;;11.90;70.00;;;7.02;100.00;97027.28;4991133;28;19955;-47
2022/11/11 04:22:20;;;;;;;;;;;11.90;69.90;;;7.05;100.00;97016.25;4991024;28;19920;-48
2022/11/11 04:27:35;;;;;;;;;;;11.80;69.90;;;7.03;100.00;97021.78;4990962;28;19920;-47
2022/11/11 04:30:01;;;;;;;;;;;11.80;70.00;;;7.05;100.00;97017.09;4998170;28;19917;-52
2022/11/11 04:32:42;;;;;;;;;;;11.80;69.90;;;7.01;100.00;97015.06;5003331;28;19932;-46
2022/11/11 04:35:23;;;;;;;;;;;11.80;70.10;;;6.98;100.00;97021.56;4992707;28;19916;-49
2022/11/11 04:37:49;;;;;;;;;;;11.80;70.10;;;6.98;100.00;97026.88;4999329;28;20042;-47
2022/11/11 04:43:02;;;;;;;;;;;11.70;70.00;;;6.97;100.00;97032.38;5002053;28;19916;-48
2022/11/11 04:45:31;;;;;;;;;;;11.70;70.00;;;6.99;100.00;97031.16;5010170;28;19953;-48
2022/11/11 04:48:09;;;;;;;;;;;11.70;70.00;;;7.00;100.00;97029.34;4988074;28;19956;-46
2022/11/11 04:50:41;;;;;;;;;;;11.70;70.10;;;7.01;100.00;97030.94;4991673;28;19963;-46
2022/11/11 04:53:16;;;;;;;;;;;11.70;70.20;;;7.00;100.00;97030.13;5012589;28;19909;-46
2022/11/11 04:58:34;;;;;;;;;;;11.70;70.20;;;7.00;100.00;97031.97;5013646;28;19916;-47
2022/11/11 05:01:00;;;;;;;;;;;11.70;70.10;;;7.00;100.00;97014.25;4999955;28;19909;-51
2022/11/11 05:03:29;;;;;;;;;;;11.70;70.10;;;6.99;100.00;97023.22;5012287;28;19931;-46
2022/11/11 05:09:03;;;;;;;;;;;11.70;70.00;;;7.01;100.00;97013.22;5010620;28;19966;-48
2022/11/11 05:11:34;;;;;;;;;;;11.80;70.10;;;7.02;100.00;97012.22;5010211;28;19909;-54
2022/11/11 05:22:48;;;;;;;;;;;11.70;70.00;;;7.01;100.00;97005.25;5012570;28;19977;-48
2022/11/11 05:25:32;;;;;;;;;;;11.70;70.10;;;7.01;100.00;97013.22;5003023;28;19914;-52
2022/11/11 05:27:58;;;;;;;;;;;11.80;70.20;;;6.98;100.00;97008.31;5013568;28;19947;-48
2022/11/11 05:30:25;;;;;;;;;;;11.70;70.10;;;6.99;100.00;97007.31;4974695;28;19918;-48
2022/11/11 05:33:01;;;;;;;;;;;11.80;70.10;;;7.01;100.00;97010.56;4987503;28;20008;-47
2022/11/11 05:35:27;;;;;;;;;;;11.80;70.10;;;6.99;100.00;97012.63;4973120;28;19910;-54
2022/11/11 05:38:23;;;;;;;;;;;11.80;70.10;;;7.03;100.00;97031.56;4973805;28;19913;-47
2022/11/11 05:40:48;;;;;;;;;;;11.80;70.10;;;7.04;100.00;97027.88;4973649;28;19917;-55
2022/11/11 05:43:24;;;;;;;;;;;11.70;70.20;;;7.05;100.00;97025.06;4972911;28;19909;-50
2022/11/11 05:45:50;;;;;;;;;;;11.70;70.20;;;7.06;100.00;97020.56;4973699;28;19917;-46
2022/11/11 05:48:16;;;;;;;;;;;11.70;70.30;;;7.10;100.00;97027.06;4972218;28;19910;-47
2022/11/11 05:50:44;;;;;;;;;;;11.70;70.30;;;7.07;100.00;97022.97;4973603;28;19909;-52
2022/11/11 05:53:10;;;;;;;;;;;11.80;70.30;;;7.11;100.00;97024.22;4973744;28;19917;-50
2022/11/11 05:55:45;;;;;;;;;;;11.80;70.40;;;7.06;100.00;97026.66;4972366;28;20308;-50
2022/11/11 05:58:10;;;;;;;;;;;11.80;71.20;;;7.07;100.00;97024.81;4973222;28;19959;-52
2022/11/11 06:00:36;;;;;;;;;;;11.80;70.30;;;7.10;100.00;97027.88;4971290;28;19910;-46
2022/11/11 06:03:04;;;;;;;;;;;11.80;70.40;;;7.14;100.00;97033.56;4988556;28;19921;-46
2022/11/11 06:05:30;;;;;;;;;;;11.80;70.40;;;7.17;100.00;97038.44;4972162;28;19918;-52
2022/11/11 06:07:56;;;;;;;;;;;11.80;70.40;;;7.11;100.00;97045.41;4966569;28;20392;-48
2022/11/11 06:10:31;;;;;;;;;;;11.80;70.40;;;7.14;100.00;97047.63;4972653;28;20480;-46
2022/11/11 06:13:01;;;;;;;;;;;11.80;70.40;;;7.16;100.00;97050.91;4972805;28;19913;-47
2022/11/11 06:15:47;;;;;;;;;;;11.90;70.50;;;7.15;100.00;97056.41;4987894;28;19956;-46
2022/11/11 06:18:13;;;;;;;;;;;11.90;70.50;;;7.23;100.00;97065.97;4986290;28;19910;-49
2022/11/11 06:20:39;;;;;;;;;;;11.90;70.50;;;7.25;100.00;97066.59;4973173;28;20427;-49
2022/11/11 06:23:14;;;;;;;;;;;11.90;70.50;;;7.27;100.00;97075.97;4973174;28;19914;-46
2022/11/11 06:28:29;;;;;;;;;;;12.00;70.50;;;7.29;100.00;97089.81;4991240;28;19916;-47
2022/11/11 06:30:54;;;;;;;;;;;12.00;70.50;;;7.31;100.00;97094.91;4960072;28;19918;-47
2022/11/11 06:33:26;;;;;;;;;;;12.00;70.50;;;7.34;100.00;97089.22;4972410;28;19913;-47
2022/11/11 06:35:57;;;;;;;;;;;12.00;70.50;;;7.35;100.00;97099.59;4969783;28;19918;-48
2022/11/11 06:38:23;;;;;;;;;;;12.10;70.50;;;7.38;100.00;97095.72;4980580;28;20430;-47
2022/11/11 06:40:48;;;;;;;;;;;12.10;70.50;;;7.38;100.00;97099.19;4972718;28;20008;-53
2022/11/11 06:43:17;;;;;;;;;;;12.10;70.50;;;7.35;100.00;97094.28;4971325;28;19914;-50
2022/11/11 06:45:54;;;;;;;;;;;12.10;70.40;;;7.36;100.00;97097.75;4964455;28;20500;-48
2022/11/11 06:48:22;;;;;;;;;;;12.10;70.30;;;7.35;100.00;97096.13;4974358;28;19965;-46
2022/11/11 06:50:48;;;;;;;;;;;12.20;70.30;;;7.41;100.00;97098.75;4970450;28;19909;-49
2022/11/11 06:53:21;;;;;;;;;;;12.20;70.30;;;7.45;100.00;97104.47;4970625;28;19936;-48
2022/11/11 06:55:50;;;;;;;;;;;12.20;70.30;;;7.46;100.00;97108.75;4959034;28;19913;-48
2022/11/11 06:58:19;;;;;;;;;;;12.30;70.40;;;7.51;100.00;97108.13;4970184;28;19914;-46
2022/11/11 07:00:47;;;;;;;;;;;12.30;70.40;;;7.50;100.00;97119.75;4950810;28;19993;-49
2022/11/11 07:03:22;;;;;;;;;;;12.30;70.40;;;7.52;100.00;97126.50;4979211;28;19917;-47
2022/11/11 07:05:48;;;;;;;;;;;12.30;70.40;;;7.54;100.00;97126.28;4969720;28;19913;-48
2022/11/11 07:08:18;;;;;;;;;;;12.30;70.40;;;7.57;100.00;97134.63;4969188;28;20328;-51
2022/11/11 07:10:48;;;;;;;;;;;12.30;70.40;;;7.59;100.00;97129.94;4991184;28;20460;-47
2022/11/11 07:13:16;;;;;;;;;;;12.40;70.40;;;7.62;100.00;97144.63;4975619;28;19916;-47
2022/11/11 07:15:43;;;;;;;;;;;12.40;70.40;;;7.67;100.00;97144.00;4971312;28;19944;-50
2022/11/11 07:18:10;;;;;;;;;;;12.40;70.50;;;7.70;100.00;97138.28;4973504;28;19959;-50
2022/11/11 07:20:37;;;;;;;;;;;12.40;70.40;;;7.69;100.00;97147.25;4973410;28;19959;-47
2022/11/11 07:23:04;;;;;;;;;;;12.50;70.50;;;7.75;100.00;97154.38;4989353;28;19914;-47
2022/11/11 07:25:38;;;;;;;;;;;12.50;70.50;;;7.76;100.00;97158.66;4985081;28;19917;-47
2022/11/11 07:28:04;;;;;;;;;;;12.60;70.50;;;7.78;100.00;97160.09;4990236;28;20326;-47
2022/11/11 07:30:32;;;;;;;;;;;12.60;70.40;;;7.80;100.00;97160.72;4960556;28;20003;-51
2022/11/11 07:32:58;;;;;;;;;;;12.70;70.40;;;7.85;100.00;97160.06;4970253;28;19909;-48
2022/11/11 07:35:24;;;;;;;;;;;12.70;70.30;;;7.87;100.00;97164.16;4990215;28;19917;-48
2022/11/11 07:37:50;;;;;;;;;;;12.80;70.30;;;7.94;100.00;97173.94;4996021;28;20358;-47
2022/11/11 07:40:18;;;;;;;;;;;12.80;70.20;;;7.99;100.00;97174.94;5010011;28;19913;-49
2022/11/11 07:42:45;;;;;;;;;;;12.90;70.30;;;8.03;100.00;97180.63;5010049;28;19916;-47
2022/11/11 07:45:13;;;;;;;;;;;12.90;70.20;;;8.05;100.00;97179.41;4990595;28;19960;-51
2022/11/11 07:47:43;;;;;;;;;;;12.90;70.20;;;8.08;100.00;97186.94;4886445;28;21762;-50
2022/11/11 07:50:27;;;;;;;;;;;13.00;70.20;;;8.13;100.00;97185.50;4960063;28;19920;-46
2022/11/11 07:52:53;;;;;;;;;;;13.00;70.10;;;8.14;100.00;97187.94;5001277;28;19913;-48
2022/11/11 07:55:19;;;;;;;;;;;13.10;70.10;;;8.11;100.00;97180.38;5003430;28;20036;-48
2022/11/11 07:57:44;;;;;;;;;;;13.10;70.00;;;8.07;100.00;97177.34;4990850;28;19914;-48
2022/11/11 08:00:17;;;;;;;;;;;13.20;70.00;;;8.08;100.00;97179.00;4989938;28;20011;-48
2022/11/11 08:02:49;;;;;;;;;;;13.20;69.90;;;8.14;100.00;97177.31;4989975;28;20395;-48
2022/11/11 08:05:21;;;;;;;;;;;13.20;69.80;;;8.19;100.00;97177.50;4999721;28;19917;-49
2022/11/11 08:07:52;;;;;;;;;;;13.30;69.80;;;8.22;100.00;97182.41;4991462;28;19949;-47
2022/11/11 08:10:21;;;;;;;;;;;13.30;69.80;;;8.23;100.00;97172.59;4991189;28;20364;-47
2022/11/11 08:15:49;;;;;;;;;;;13.40;69.80;;;8.26;100.00;97167.66;5003202;28;20421;-46
2022/11/11 08:18:21;;;;;;;;;;;13.40;69.70;;;8.28;100.00;97172.78;5009091;28;19999;-48
2022/11/11 08:20:53;;;;;;;;;;;13.40;69.60;;;8.31;100.00;97169.72;5011510;28;19910;-46
2022/11/11 08:23:30;;;;;;;;;;;13.50;69.60;;;8.35;100.00;97184.19;4995823;28;20009;-52
2022/11/11 08:26:05;;;;;;;;;;;13.50;69.50;;;8.42;100.00;97185.00;4994251;28;19913;-46
2022/11/11 08:28:33;;;;;;;;;;;13.50;69.50;;;8.48;100.00;97175.38;4994748;28;20269;-53
2022/11/11 08:31:01;;;;;;;;;;;13.60;69.60;;;8.58;100.00;97175.72;5006233;28;19944;-51
2022/11/11 08:33:27;;;;;;;;;;;13.70;69.60;;;8.60;100.00;97180.81;5015929;28;19908;-47
2022/11/11 08:36:01;;;;;;;;;;;13.80;69.50;;;8.54;100.00;97185.94;5016192;28;20793;-46
2022/11/11 08:38:37;;;;;;;;;;;13.80;69.20;;;8.58;100.00;97187.16;5020288;28;20012;-46
2022/11/11 08:41:06;;;;;;;;;;;13.90;69.20;;;8.60;100.00;97189.59;4986509;28;20028;-48
2022/11/11 08:43:32;;;;;;;;;;;13.90;69.10;;;8.63;100.00;97183.88;4995121;28;20350;-47
2022/11/11 08:46:00;;;;;;;;;;;14.00;69.10;;;8.67;100.00;97181.59;5014053;28;19913;-52
2022/11/11 08:48:38;;;;;;;;;;;14.00;69.00;;;8.70;100.00;97186.47;5014285;28;19913;-48
2022/11/11 08:51:10;;;;;;;;;;;14.10;69.00;;;8.69;100.00;97175.06;5016013;28;19944;-47
2022/11/11 08:53:35;;;;;;;;;;;14.10;68.90;;;8.72;100.00;97185.25;4998287;28;19948;-51
2022/11/11 08:56:05;;;;;;;;;;;14.10;68.80;;;8.73;100.00;97175.44;5012188;28;19960;-52
2022/11/11 08:58:31;;;;;;;;;;;14.20;68.70;;;8.82;100.00;97184.78;5012087;28;19913;-54
2022/11/11 09:00:57;;;;;;;;;;;14.20;68.70;;;8.87;100.00;97187.63;4995421;28;20325;-49
2022/11/11 09:03:26;;;;;;;;;;;14.20;68.70;;;8.90;100.00;97191.66;4997485;28;19913;-47
2022/11/11 09:05:51;;;;;;;;;;;14.30;68.70;;;8.96;100.00;97191.66;5008636;28;19966;-53
2022/11/11 09:08:18;;;;;;;;;;;14.40;68.70;;;9.04;100.00;97191.38;5012978;28;19917;-52
2022/11/11 09:10:43;;;;;;;;;;;14.50;68.70;;;9.04;100.00;97187.91;4982792;28;19913;-47
2022/11/11 09:13:09;;;;;;;;;;;14.50;68.60;;;9.06;100.00;97185.00;5003609;28;20359;-49
2022/11/11 09:15:35;;;;;;;;;;;14.50;68.50;;;9.09;100.00;97189.91;5017969;28;19912;-47
2022/11/11 09:18:02;;;;;;;;;;;14.60;68.50;;;9.15;100.00;97192.53;4983652;28;19960;-50
2022/11/11 09:20:28;;;;;;;;;;;14.70;68.50;;;9.27;100.00;97195.28;5014481;28;20290;-46
2022/11/11 09:22:54;;;;;;;;;;;14.70;68.40;;;9.33;100.00;97204.25;5014437;28;19913;-47
2022/11/11 09:25:23;;;;;;;;;;;14.90;68.40;;;9.38;100.00;97197.25;4993300;28;20330;-47
2022/11/11 09:27:58;;;;;;;;;;;15.00;68.40;;;9.45;100.00;97194.53;5008747;28;19917;-47
2022/11/11 09:30:30;;;;;;;;;;;15.10;68.10;;;9.52;100.00;97187.31;5016916;23;19931;-50
2022/11/11 09:33:02;;;;;;;;;;;15.20;68.00;;;9.56;100.00;97185.84;4991407;28;20008;-49
2022/11/11 09:35:29;;;;;;;;;;;15.30;67.90;;;9.61;100.00;97186.00;4990834;28;19913;-53
2022/11/11 09:37:58;;;;;;;;;;;15.40;67.70;;;9.62;100.00;97181.47;4990653;28;19964;-50
2022/11/11 09:40:34;;;;;;;;;;;15.60;67.60;;;9.68;100.00;97183.28;4990183;28;19956;-54
2022/11/11 09:43:45;;;;;;;;;;;15.70;67.50;;;9.78;99.35;97183.59;4970801;28;19910;-52
2022/11/11 09:47:08;;;;;;;;;;;15.80;67.30;;;9.90;98.84;97189.81;4971647;28;19914;-54
2022/11/11 09:50:03;;;;;;;;;;;16.00;67.20;;;10.00;97.49;97183.97;4937456;28;19960;-50
2022/11/11 09:52:39;;;;;;;;;;;16.10;66.90;;;10.01;95.98;97182.13;4971695;28;20347;-50
2022/11/11 09:55:26;;;;;;;;;;;16.10;66.80;;;9.98;95.76;97185.22;4971991;28;19914;-54
2022/11/11 09:58:15;;;;;;;;;;;16.20;67.30;;;10.07;96.80;97181.25;4971960;28;20312;-54
2022/11/11 10:01:22;;;;;;;;;;;16.30;66.50;;;10.22;97.10;97180.88;4972040;28;19932;-54
2022/11/11 10:04:34;;;;;;;;;;;16.30;66.50;;;10.24;94.59;97178.78;4971348;28;19910;-50
2022/11/11 10:07:17;;;;;;;;;;;16.50;66.40;;;10.32;94.29;97174.00;4987724;28;20415;-54
2022/11/11 10:10:30;;;;;;;;;;;16.50;66.20;;;10.36;93.49;97167.19;4972268;28;20004;-52
2022/11/11 10:12:57;;;;;;;;;;;16.60;66.20;;;10.38;93.38;97167.78;4974390;28;19910;-53
2022/11/11 10:15:39;;;;;;;;;;;16.60;66.10;;;10.48;93.73;97158.44;4972083;28;19914;-56
2022/11/11 10:18:31;;;;;;;;;;;16.60;66.20;;;10.41;90.22;97162.00;4971527;28;20068;-53
2022/11/11 10:20:57;;;;;;;;;;;16.60;66.30;;;10.40;91.30;97148.91;4973257;28;19909;-54
2022/11/11 10:23:33;;;;;;;;;;;16.60;66.10;;;10.44;91.44;97150.09;4971293;28;19914;-55
2022/11/11 10:26:14;;;;;;;;;;;16.50;66.00;;;10.52;91.67;97156.94;4973324;28;20276;-50
2022/11/11 10:28:44;;;;;;;;;;;16.50;66.10;;;10.53;91.25;97143.41;4971847;28;20047;-53
2022/11/11 10:31:23;;;;;;;;;;;16.50;66.20;;;10.59;90.85;97144.34;4954654;28;19960;-55
2022/11/11 10:34:29;;;;;;;;;;;16.40;67.00;;;10.58;88.94;97146.19;4972567;28;20384;-54
2022/11/11 10:37:01;;;;;;;;;;;16.50;66.30;;;10.59;89.15;97139.84;4949837;28;19950;-49
2022/11/11 10:40:21;;;;;;;;;;;16.40;66.20;;;10.59;89.19;97142.50;4971761;28;20415;-53
2022/11/11 10:42:47;;;;;;;;;;;16.40;66.00;;;10.54;89.23;97141.56;4971409;28;19920;-49
2022/11/11 10:46:15;;;;;;;;;;;16.40;65.90;;;10.67;89.73;97143.22;4972057;28;19918;-49
2022/11/11 10:49:06;;;;;;;;;;;16.40;66.60;;;10.77;89.21;97138.16;4963781;28;19913;-52
2022/11/11 10:52:00;;;;;;;;;;;16.50;65.80;;;10.69;88.56;97128.63;4968567;28;20380;-54
2022/11/11 10:54:43;;;;;;;;;;;16.50;65.70;;;10.70;89.17;97127.59;4954083;28;19936;-55
2022/11/11 10:57:24;;;;;;;;;;;16.50;65.60;;;10.75;88.39;97126.91;4963951;28;20221;-53
2022/11/11 11:00:06;;;;;;;;;;;16.60;65.40;;;10.85;89.24;97113.84;4966327;28;20275;-55
2022/11/11 11:03:13;;;;;;;;;;;16.70;65.30;;;10.87;88.85;97119.75;4970393;28;19963;-50
2022/11/11 11:06:04;;;;;;;;;;;16.80;65.30;;;10.94;89.42;97117.00;4970606;28;20012;-54
2022/11/11 11:08:40;;;;;;;;;;;16.80;65.20;;;11.02;87.12;97112.13;4970908;28;20316;-49
2022/11/11 11:11:22;;;;;;;;;;;16.90;65.10;;;11.04;86.03;97112.72;4971036;28;19909;-49
2022/11/11 11:13:58;;;;;;;;;;;16.90;64.90;;;11.08;86.29;97113.88;4968671;28;19989;-50
2022/11/11 11:16:54;;;;;;;;;;;17.00;64.70;;;11.03;85.61;97103.09;4955106;28;20289;-54
2022/11/11 11:19:24;;;;;;;;;;;17.10;64.60;;;11.10;84.22;97103.00;4969768;28;19914;-50
2022/11/11 11:22:00;;;;;;;;;;;17.10;64.40;;;11.17;85.69;97098.34;4969765;28;19914;-52
2022/11/11 11:24:36;;;;;;;;;;;17.20;64.30;;;11.40;86.56;97097.53;4969089;28;19959;-50
2022/11/11 11:27:07;;;;;;;;;;;17.30;64.40;;;11.56;83.21;97102.19;4970724;28;20380;-50
2022/11/11 11:29:41;;;;;;;;;;;17.50;64.40;;;11.74;82.94;97101.22;4968811;28;20008;-54
2022/11/11 11:32:31;;;;;;;;;;;17.70;64.20;;;11.88;82.36;97099.16;4966656;28;19961;-55
2022/11/11 11:34:57;;;;;;;;;;;17.90;63.80;;;11.85;83.97;97102.28;4981544;28;19940;-53
2022/11/11 11:37:29;;;;;;;;;;;18.20;63.60;;;11.96;82.97;97088.06;4970455;28;19909;-55
2022/11/11 11:40:06;;;;;;;;;;;18.50;63.40;;;12.18;83.50;97090.91;4970223;28;19937;-50
2022/11/11 11:42:38;;;;;;;;;;;18.80;63.10;;;12.32;79.07;97094.13;4953409;28;19917;-55
2022/11/11 11:45:32;;;;;;;;;;;19.10;62.80;;;12.54;78.91;97080.91;4970285;28;19924;-51
2022/11/11 11:48:48;;;;;;;;;;;19.40;62.20;;;12.59;77.89;97080.16;4970671;28;19925;-54
2022/11/11 11:51:53;;;;;;;;;;;19.80;61.80;;;12.69;78.10;97069.63;4967776;28;19910;-53
2022/11/11 11:55:00;;;;;;;;;;;20.00;61.20;;;12.86;78.04;97070.47;4971724;28;19921;-50
2022/11/11 11:57:52;;;;;;;;;;;20.00;60.90;;;12.99;76.22;97077.38;4971195;28;20284;-50
2022/11/11 12:00:35;;;;;;;;;;;20.10;60.60;;;13.11;75.16;97074.63;4974833;28;20001;-50
2022/11/11 12:03:52;;;;;;;;;;;20.20;60.40;;;13.32;76.35;97078.44;4975390;28;19940;-53
2022/11/11 12:07:11;;;;;;;;;;;20.30;60.20;;;13.47;72.81;97083.19;4974908;28;19913;-50
2022/11/11 12:10:52;;;;;;;;;;;20.50;60.00;;;13.57;72.42;97076.13;4965637;28;20051;-50
2022/11/11 12:13:42;;;;;;;;;;;20.60;59.80;;;13.61;72.18;97081.78;4957654;28;20217;-52
2022/11/11 12:17:23;;;;;;;;;;;20.70;59.50;;;13.72;73.97;97077.38;4982400;28;19909;-51
2022/11/11 12:19:58;;;;;;;;;;;20.80;59.20;;;13.67;73.40;97078.13;4966328;28;20004;-52
2022/11/11 12:22:29;;;;;;;;;;;21.00;59.80;;;13.79;72.86;97075.34;4973423;28;19956;-57
2022/11/11 12:25:07;;;;;;;;;;;21.20;59.00;;;13.74;72.63;97072.59;4965228;28;19972;-50
2022/11/11 12:27:58;;;;;;;;;;;21.20;58.70;;;13.79;73.83;97070.78;4973559;28;19917;-52
2022/11/11 12:30:28;;;;;;;;;;;21.30;58.60;;;13.86;72.55;97068.72;4961436;28;19948;-56
2022/11/11 12:33:34;;;;;;;;;;;21.30;58.60;;;14.06;72.08;97073.50;4973841;28;19918;-51
2022/11/11 12:36:23;;;;;;;;;;;21.40;58.50;;;14.13;71.10;97065.28;4972172;28;19918;-50
2022/11/11 12:39:12;;;;;;;;;;;21.40;58.40;;;14.04;70.09;97062.25;4989534;28;20380;-51
2022/11/11 12:42:09;;;;;;;;;;;21.50;58.30;;;14.02;69.80;97072.41;4984436;28;19917;-56
2022/11/11 12:45:13;;;;;;;;;;;21.40;58.00;;;13.98;70.33;97068.63;4973098;28;19909;-55
2022/11/11 12:47:58;;;;;;;;;;;21.30;58.00;;;14.03;71.42;97067.84;4963375;28;19917;-53
2022/11/11 12:50:35;;;;;;;;;;;21.30;57.90;;;13.99;69.58;97067.53;4973825;28;19917;-54
2022/11/11 12:53:17;;;;;;;;;;;21.30;57.80;;;14.00;70.33;97074.50;4973952;28;19964;-54
2022/11/11 12:56:37;;;;;;;;;;;21.20;57.60;;;13.85;70.95;97071.66;4971778;28;19920;-52
2022/11/11 12:59:27;;;;;;;;;;;21.20;57.40;;;13.88;72.58;97066.63;4972427;28;19916;-51